Aviation Digital Data Service (ADDS)

Output produced by METARs form (0040 UTC 05 July 2022)
found at http://www.aviationweather.gov/metar/data/
 
Forecast for: OIFM (ESFAHAN S B INTL, IR)
Text: TAF OIFM 042330Z 0500/0606 32008KT 5000 DU NSC
Forecast period: 0000 to 1800 UTC 05 July 2022
Forecast type: FROM: standard forecast or significant change
Winds: from the NW (320 degrees) at 9 MPH (8 knots; 4.1 m/s)
Visibility: 3 miles (5 km)
Ceiling: unknown
Clouds: missing
Weather: DU  (widespread dust)
Text: TEMPO 0511/0518 04024KT 1500 SA DU
Forecast period: 1100 to 1800 UTC 05 July 2022
Forecast type: TEMPORARY: The following changes expected for less than half the time period
Winds: from the NE (40 degrees) at 28 MPH (24 knots; 12.3 m/s)
Visibility: 0.93 miles (1.50 km)
Ceiling: unknown
Clouds: missing
Weather: SA DU  (sand, widespread dust)
Text: BECMG 0518/0520 6000
Forecast period: 1800 UTC 05 July 2022 to 0600 UTC 06 July 2022
Forecast type: BECOMING: Conditions expected to become as follows by 2000 UTC 05 July 2022
Winds: from the NW (320 degrees) at 9 MPH (8 knots; 4.1 m/s)
Visibility: 4 miles (6 km)
Ceiling: unknown
Clouds: missing
Weather: DU  (widespread dust)